createdAt,value
2019-04-20T00:02:19.354Z,99.90
2019-04-20T00:04:49.427Z,99.90
2019-04-20T00:07:23.973Z,99.90
2019-04-20T00:09:56.655Z,99.90
2019-04-20T00:12:33.617Z,99.90
2019-04-20T00:14:52.105Z,99.90
2019-04-20T00:17:22.030Z,99.90
2019-04-20T00:19:54.594Z,99.90
2019-04-20T00:22:34.389Z,99.90
2019-04-20T00:25:15.936Z,99.90
2019-04-20T00:28:19.837Z,99.90
2019-04-20T00:30:50.433Z,99.90
2019-04-20T00:33:09.377Z,99.90
2019-04-20T00:35:32.135Z,99.90
2019-04-20T00:38:01.394Z,99.90
2019-04-20T00:40:30.650Z,99.90
2019-04-20T00:43:01.377Z,99.90
2019-04-20T00:45:33.763Z,99.90
2019-04-20T00:48:07.970Z,99.90
2019-04-20T00:50:44.488Z,99.90
2019-04-20T00:53:14.856Z,99.90
2019-04-20T00:55:33.811Z,99.90
2019-04-20T00:58:11.825Z,99.90
2019-04-20T01:00:59.971Z,99.90
2019-04-20T01:03:20.944Z,99.90
2019-04-20T01:06:09.700Z,99.90
2019-04-20T01:08:23.371Z,99.90
2019-04-20T01:10:55.723Z,99.90
2019-04-20T01:13:24.974Z,99.90
2019-04-20T01:15:58.857Z,99.90
2019-04-20T01:18:24.564Z,99.90
2019-04-20T01:20:53.678Z,99.90
2019-04-20T01:23:29.219Z,99.90
2019-04-20T01:26:01.440Z,99.90
2019-04-20T01:28:37.523Z,99.90
2019-04-20T01:31:09.214Z,99.90
2019-04-20T01:33:37.308Z,99.90
2019-04-20T01:36:14.725Z,99.90
2019-04-20T01:38:44.693Z,99.90
2019-04-20T01:40:59.045Z,99.90
2019-04-20T01:43:29.130Z,99.90
2019-04-20T01:46:07.562Z,99.90
2019-04-20T01:48:33.977Z,99.90
2019-04-20T01:51:09.306Z,99.90
2019-04-20T01:53:56.782Z,99.90
2019-04-20T01:56:27.877Z,99.90
2019-04-20T01:59:16.155Z,99.90
2019-04-20T02:01:59.259Z,99.90
2019-04-20T02:04:52.541Z,99.90
2019-04-20T02:07:28.191Z,99.90
2019-04-20T02:09:58.379Z,99.90
2019-04-20T02:12:28.666Z,99.90
2019-04-20T02:14:58.960Z,99.90
2019-04-20T02:17:31.921Z,99.90
2019-04-20T02:20:15.666Z,99.90
2019-04-20T02:22:44.848Z,99.90
2019-04-20T02:24:57.131Z,99.90
2019-04-20T02:27:34.472Z,99.90
2019-04-20T02:30:32.477Z,99.90
2019-04-20T02:35:56.211Z,99.90
2019-04-20T02:38:46.456Z,99.90
2019-04-20T02:43:46.521Z,99.90
2019-04-20T02:45:57.782Z,99.90
2019-04-20T02:48:29.856Z,99.90
2019-04-20T02:53:46.917Z,99.90
2019-04-20T02:56:17.442Z,99.90
2019-04-20T02:58:41.519Z,99.90
2019-04-20T03:01:15.988Z,99.90
2019-04-20T03:03:32.827Z,99.90
2019-04-20T03:06:08.462Z,99.90
2019-04-20T03:08:52.623Z,99.90
2019-04-20T03:11:26.231Z,99.90
2019-04-20T03:13:53.167Z,99.90
2019-04-20T03:16:17.751Z,99.90
2019-04-20T03:18:44.551Z,99.90
2019-04-20T03:21:24.903Z,99.90
2019-04-20T03:24:03.953Z,99.90
2019-04-20T03:26:31.313Z,99.90
2019-04-20T03:29:07.891Z,99.90
2019-04-20T03:37:08.454Z,99.90
2019-04-20T03:39:18.027Z,99.90
2019-04-20T03:41:39.414Z,99.90
2019-04-20T03:44:08.969Z,99.90
2019-04-20T03:46:41.945Z,99.90
2019-04-20T03:49:21.531Z,99.90
2019-04-20T03:51:57.376Z,99.90
2019-04-20T03:54:28.807Z,99.90
2019-04-20T03:57:12.425Z,99.90
2019-04-20T03:59:51.028Z,99.90
2019-04-20T04:02:54.686Z,99.90
2019-04-20T04:05:23.860Z,99.90
2019-04-20T04:07:44.849Z,99.90
2019-04-20T04:10:20.728Z,99.90
2019-04-20T04:13:16.897Z,99.90
2019-04-20T04:15:52.257Z,99.90
2019-04-20T04:18:26.017Z,99.90
2019-04-20T04:20:59.041Z,99.90
2019-04-20T04:23:36.600Z,99.90
2019-04-20T04:26:08.577Z,99.90
2019-04-20T04:28:37.128Z,99.90
2019-04-20T04:31:12.163Z,99.90
2019-04-20T04:36:10.515Z,99.90
2019-04-20T04:38:47.482Z,99.90
2019-04-20T04:41:19.943Z,99.90
2019-04-20T04:43:44.413Z,99.90
2019-04-20T04:45:57.415Z,99.90
2019-04-20T04:48:32.145Z,99.90
2019-04-20T04:51:03.866Z,99.90
2019-04-20T04:53:42.983Z,99.90
2019-04-20T04:56:05.814Z,99.90
2019-04-20T04:58:29.853Z,99.90
2019-04-20T05:01:05.669Z,99.90
2019-04-20T05:04:01.093Z,99.90
2019-04-20T05:06:26.417Z,99.90
2019-04-20T05:08:45.312Z,99.90
2019-04-20T05:11:11.123Z,99.90
2019-04-20T05:13:48.894Z,99.90
2019-04-20T05:16:28.357Z,99.90
2019-04-20T05:19:03.340Z,99.90
2019-04-20T05:21:49.865Z,99.90
2019-04-20T05:24:25.572Z,99.90
2019-04-20T05:27:09.220Z,99.90
2019-04-20T05:29:24.090Z,99.90
2019-04-20T05:31:54.351Z,99.90
2019-04-20T05:34:39.018Z,99.90
2019-04-20T05:37:17.609Z,99.90
2019-04-20T05:39:39.146Z,99.90
2019-04-20T05:42:12.353Z,99.90
2019-04-20T05:44:46.069Z,99.90
2019-04-20T05:47:19.947Z,99.90
2019-04-20T05:49:46.828Z,99.90
2019-04-20T05:52:31.072Z,99.90
2019-04-20T05:54:51.103Z,99.90
2019-04-20T05:57:27.839Z,99.90
2019-04-20T05:59:56.190Z,99.90
2019-04-20T06:02:23.391Z,99.90
2019-04-20T06:05:00.488Z,99.90
2019-04-20T06:07:24.981Z,99.90
2019-04-20T06:09:54.647Z,99.90
2019-04-20T06:12:23.921Z,99.90
2019-04-20T06:15:18.673Z,99.90
2019-04-20T06:18:02.821Z,99.90
2019-04-20T06:20:46.337Z,99.90
2019-04-20T06:23:45.610Z,99.90
2019-04-20T06:26:20.555Z,99.90
2019-04-20T06:28:33.751Z,99.90
2019-04-20T06:31:10.720Z,99.90
2019-04-20T06:34:25.644Z,99.90
2019-04-20T06:36:47.246Z,99.90
2019-04-20T06:39:16.827Z,99.90
2019-04-20T06:44:26.645Z,99.90
2019-04-20T06:46:52.456Z,99.90
2019-04-20T06:49:25.575Z,99.90
2019-04-20T06:51:52.761Z,99.90
2019-04-20T06:54:20.935Z,99.90
2019-04-20T06:57:01.651Z,99.90
2019-04-20T06:59:39.045Z,99.90
2019-04-20T07:02:11.548Z,99.90
2019-04-20T07:07:10.183Z,99.90
2019-04-20T07:12:03.154Z,99.90
2019-04-20T07:14:27.588Z,99.90
2019-04-20T07:20:08.343Z,92.40
2019-04-20T07:22:49.226Z,75.30
2019-04-20T07:25:18.748Z,51.10
2019-04-20T07:27:49.671Z,44.40
2019-04-20T07:30:16.556Z,38.80
2019-04-20T07:32:52.387Z,33.40
2019-04-20T07:35:19.660Z,33.00
2019-04-20T07:40:20.304Z,32.00
2019-04-20T07:42:56.516Z,29.60
2019-04-20T07:48:05.268Z,27.90
2019-04-20T07:50:21.787Z,27.10
2019-04-20T07:52:46.270Z,27.40
2019-04-20T07:57:55.100Z,25.80
2019-04-20T08:00:41.990Z,25.90
2019-04-20T08:03:39.682Z,27.40
2019-04-20T08:06:35.346Z,27.90
2019-04-20T08:09:13.549Z,26.90
2019-04-20T08:11:50.355Z,27.20
2019-04-20T08:16:58.649Z,26.60
2019-04-20T08:19:18.861Z,26.10
2019-04-20T08:22:12.328Z,29.70
2019-04-20T08:24:17.080Z,31.70
2019-04-20T08:26:39.942Z,31.10
2019-04-20T08:29:33.829Z,33.30
2019-04-20T08:32:27.100Z,33.50
2019-04-20T08:34:59.523Z,34.40
2019-04-20T08:37:26.595Z,33.80
2019-04-20T08:40:05.338Z,34.70
2019-04-20T08:42:31.268Z,34.50
2019-04-20T08:45:03.839Z,35.10
2019-04-20T08:47:47.397Z,34.70
2019-04-20T08:50:26.935Z,34.60
2019-04-20T08:55:16.476Z,31.80
2019-04-20T08:57:29.298Z,31.40
2019-04-20T09:00:01.507Z,32.20
2019-04-20T09:02:30.477Z,31.10
2019-04-20T09:05:04.821Z,29.50
2019-04-20T09:07:35.239Z,29.20
2019-04-20T09:10:25.609Z,29.20
2019-04-20T09:12:45.181Z,28.50
2019-04-20T09:15:03.830Z,28.00
2019-04-20T09:17:48.456Z,29.80
2019-04-20T09:20:21.880Z,31.10
2019-04-20T09:23:08.165Z,32.60
2019-04-20T09:25:54.529Z,32.80
2019-04-20T09:28:32.270Z,29.40
2019-04-20T09:31:15.710Z,31.10
2019-04-20T09:33:55.565Z,31.00
2019-04-20T09:36:23.667Z,30.70
2019-04-20T09:39:11.248Z,32.10
2019-04-20T09:44:13.433Z,32.10
2019-04-20T09:46:49.260Z,34.30
2019-04-20T09:49:25.947Z,35.10
2019-04-20T09:52:05.229Z,32.70
2019-04-20T09:54:31.056Z,33.10
2019-04-20T09:57:07.509Z,34.40
2019-04-20T09:59:33.246Z,34.80
2019-04-20T10:01:54.701Z,34.70
2019-04-20T10:04:17.550Z,34.00
2019-04-20T10:06:47.656Z,35.50
2019-04-20T10:09:22.389Z,35.60
2019-04-20T10:11:48.759Z,38.20
2019-04-20T10:14:18.219Z,37.00
2019-04-20T10:16:47.417Z,39.40
2019-04-20T10:19:20.657Z,40.30
2019-04-20T10:21:48.368Z,40.10
2019-04-20T10:24:18.864Z,39.90
2019-04-20T10:26:48.666Z,41.00
2019-04-20T10:29:17.667Z,39.60
2019-04-20T10:31:51.477Z,39.90
2019-04-20T10:34:18.045Z,38.40
2019-04-20T10:37:07.312Z,38.10
2019-04-20T10:39:40.522Z,37.00
2019-04-20T10:42:10.119Z,37.30
2019-04-20T10:44:39.398Z,36.30
2019-04-20T10:47:09.138Z,33.90
2019-04-20T10:49:38.439Z,34.20
2019-04-20T10:52:07.676Z,32.70
2019-04-20T10:54:38.414Z,33.80
2019-04-20T10:57:07.994Z,34.80
2019-04-20T10:59:37.289Z,35.10
2019-04-20T11:02:07.783Z,34.60
2019-04-20T11:04:37.196Z,35.80
2019-04-20T11:07:06.553Z,35.60
2019-04-20T11:09:36.643Z,35.20
2019-04-20T11:12:06.391Z,33.70
2019-04-20T11:14:40.067Z,33.50
2019-04-20T11:17:06.700Z,34.00
2019-04-20T11:19:37.000Z,34.60
2019-04-20T11:22:06.493Z,33.40
2019-04-20T11:24:36.458Z,33.20
2019-04-20T11:27:06.085Z,31.70
2019-04-20T11:29:36.049Z,33.10
2019-04-20T11:32:05.308Z,31.80
2019-04-20T11:34:38.143Z,31.20
2019-04-20T11:37:06.892Z,30.00
2019-04-20T11:39:36.995Z,31.90
2019-04-20T11:42:06.205Z,29.80
2019-04-20T11:44:36.484Z,31.20
2019-04-20T11:47:06.416Z,30.30
2019-04-20T11:49:35.570Z,30.60
2019-04-20T11:52:05.546Z,30.80
2019-04-20T11:54:34.758Z,30.90
2019-04-20T11:57:03.863Z,30.30
2019-04-20T11:59:32.899Z,31.60
2019-04-20T12:02:29.081Z,30.70
2019-04-20T12:05:10.249Z,31.30
2019-04-20T12:07:26.810Z,30.60
2019-04-20T12:09:59.386Z,33.80
2019-04-20T12:12:35.235Z,33.00
2019-04-20T12:14:58.729Z,32.80
2019-04-20T12:17:29.103Z,32.00
2019-04-20T12:19:59.858Z,32.20
2019-04-20T12:22:30.382Z,33.00
2019-04-20T12:25:00.400Z,32.60
2019-04-20T12:27:30.470Z,30.70
2019-04-20T12:30:01.862Z,31.60
2019-04-20T12:32:35.244Z,31.60
2019-04-20T12:35:02.613Z,30.80
2019-04-20T12:37:34.161Z,31.00
2019-04-20T12:40:03.228Z,31.30
2019-04-20T12:42:32.922Z,32.10
2019-04-20T12:45:02.096Z,31.50
2019-04-20T12:47:32.108Z,31.90
2019-04-20T12:50:01.366Z,33.10
2019-04-20T12:52:30.719Z,31.40
2019-04-20T12:55:02.683Z,31.70
2019-04-20T12:57:30.458Z,31.00
2019-04-20T12:59:59.569Z,30.90
2019-04-20T13:02:29.310Z,30.70
2019-04-20T13:04:59.531Z,32.70
2019-04-20T13:07:31.568Z,31.80
2019-04-20T13:10:02.149Z,32.40
2019-04-20T13:12:56.918Z,31.40
2019-04-20T13:15:49.818Z,31.60
2019-04-20T13:18:25.402Z,32.60
2019-04-20T13:20:57.891Z,32.80
2019-04-20T13:23:26.757Z,32.00
2019-04-20T13:25:57.110Z,32.00
2019-04-20T13:28:26.266Z,33.20
2019-04-20T13:30:55.611Z,32.10
2019-04-20T13:33:25.141Z,32.80
2019-04-20T13:35:54.494Z,32.70
2019-04-20T13:38:23.506Z,35.20
2019-04-20T13:40:53.652Z,34.10
2019-04-20T13:43:23.797Z,32.70
2019-04-20T13:45:53.192Z,31.90
2019-04-20T13:48:22.243Z,32.30
2019-04-20T13:50:51.871Z,32.60
2019-04-20T13:53:21.265Z,33.10
2019-04-20T13:55:50.273Z,32.70
2019-04-20T13:58:38.177Z,32.50
2019-04-20T14:01:26.439Z,33.60
2019-04-20T14:04:05.385Z,32.40
2019-04-20T14:06:35.306Z,33.40
2019-04-20T14:09:07.507Z,31.70
2019-04-20T14:11:36.723Z,32.20
2019-04-20T14:14:08.112Z,32.30
2019-04-20T14:16:37.001Z,32.90
2019-04-20T14:19:07.178Z,32.50
2019-04-20T14:21:36.465Z,32.90
2019-04-20T14:24:06.668Z,33.20
2019-04-20T14:26:38.804Z,33.80
2019-04-20T14:29:07.280Z,32.80
2019-04-20T14:31:37.497Z,32.40
2019-04-20T14:34:06.906Z,31.60
2019-04-20T14:36:37.127Z,32.10
2019-04-20T14:39:09.817Z,34.40
2019-04-20T14:41:40.370Z,33.80
2019-04-20T14:44:09.963Z,34.60
2019-04-20T14:46:40.002Z,33.20
2019-04-20T14:49:10.343Z,33.40
2019-04-20T14:51:39.669Z,33.70
2019-04-20T14:54:09.623Z,33.00
2019-04-20T14:56:38.767Z,33.00
2019-04-20T14:59:13.759Z,33.80
2019-04-20T15:01:46.183Z,33.60
2019-04-20T15:04:18.596Z,34.20
2019-04-20T15:06:46.633Z,34.30
2019-04-20T15:09:16.819Z,34.50
2019-04-20T15:11:46.684Z,30.60
2019-04-20T15:14:16.510Z,31.70
2019-04-20T15:16:46.747Z,32.70
2019-04-20T15:19:35.843Z,33.10
2019-04-20T15:22:07.420Z,31.70
2019-04-20T15:24:37.691Z,32.10
2019-04-20T15:27:06.828Z,33.30
2019-04-20T15:29:36.093Z,33.90
2019-04-20T15:32:06.035Z,34.40
2019-04-20T15:34:35.319Z,35.70
2019-04-20T15:37:05.516Z,36.10
2019-04-20T15:39:34.961Z,35.80
2019-04-20T15:42:05.330Z,35.10
2019-04-20T15:44:35.571Z,35.40
2019-04-20T15:47:05.031Z,35.50
2019-04-20T15:49:34.035Z,35.70
2019-04-20T15:52:03.910Z,34.30
2019-04-20T15:54:33.847Z,34.60
2019-04-20T15:57:12.307Z,35.40
2019-04-20T15:59:34.732Z,36.50
2019-04-20T16:02:35.731Z,36.60
2019-04-20T16:05:16.578Z,36.10
2019-04-20T16:07:52.538Z,37.40
2019-04-20T16:10:17.065Z,36.10
2019-04-20T16:12:46.896Z,36.40
2019-04-20T16:15:16.222Z,37.60
2019-04-20T16:17:47.797Z,37.30
2019-04-20T16:20:20.113Z,36.60
2019-04-20T16:22:46.889Z,36.50
2019-04-20T16:25:31.850Z,36.40
2019-04-20T16:28:01.527Z,36.60
2019-04-20T16:30:31.808Z,37.80
2019-04-20T16:33:00.882Z,37.60
2019-04-20T16:35:30.046Z,38.70
2019-04-20T16:38:00.354Z,37.40
2019-04-20T16:40:29.792Z,37.30
2019-04-20T16:42:58.933Z,37.90
2019-04-20T16:45:27.988Z,36.60
2019-04-20T16:47:58.877Z,36.70
2019-04-20T16:50:28.918Z,36.70
2019-04-20T16:52:59.112Z,37.80
2019-04-20T16:55:28.484Z,37.80
2019-04-20T16:57:57.581Z,37.40
2019-04-20T17:00:27.520Z,37.20
2019-04-20T17:02:56.714Z,38.20
2019-04-20T17:05:25.943Z,37.20
2019-04-20T17:07:57.399Z,38.70
2019-04-20T17:10:26.947Z,37.80
2019-04-20T17:12:55.990Z,36.40
2019-04-20T17:15:25.579Z,38.70
2019-04-20T17:17:57.042Z,38.30
2019-04-20T17:20:27.060Z,38.50
2019-04-20T17:22:56.477Z,42.00
2019-04-20T17:25:25.893Z,41.30
2019-04-20T17:28:13.281Z,39.60
2019-04-20T17:30:56.990Z,41.60
2019-04-20T17:33:46.528Z,42.20
2019-04-20T17:36:14.423Z,43.00
2019-04-20T17:38:41.981Z,43.10
2019-04-20T17:41:23.761Z,43.20
2019-04-20T17:43:57.646Z,43.60
2019-04-20T17:46:17.366Z,44.00
2019-04-20T17:48:51.231Z,44.70
2019-04-20T17:51:29.095Z,45.30
2019-04-20T17:54:06.462Z,46.20
2019-04-20T17:56:42.398Z,47.10
2019-04-20T17:59:12.480Z,46.90
2019-04-20T18:02:11.946Z,47.80
2019-04-20T18:05:12.633Z,48.30
2019-04-20T18:07:41.088Z,46.40
2019-04-20T18:10:13.075Z,47.60
2019-04-20T18:12:30.865Z,46.40
2019-04-20T18:15:10.772Z,47.80
2019-04-20T18:18:02.695Z,48.60
2019-04-20T18:20:20.894Z,49.20
2019-04-20T18:22:55.134Z,48.80
2019-04-20T18:25:52.651Z,49.40
2019-04-20T18:28:04.421Z,48.90
2019-04-20T18:30:48.805Z,50.00
2019-04-20T18:33:11.481Z,50.90
2019-04-20T18:35:45.575Z,51.70
2019-04-20T18:38:14.853Z,50.30
2019-04-20T18:40:51.454Z,49.00
2019-04-20T18:43:18.760Z,48.80
2019-04-20T18:46:05.393Z,49.90
2019-04-20T18:48:37.933Z,48.90
2019-04-20T18:50:47.360Z,49.60
2019-04-20T18:53:24.726Z,50.10
2019-04-20T18:55:53.820Z,52.50
2019-04-20T18:58:17.389Z,50.40
2019-04-20T19:00:51.240Z,50.70
2019-04-20T19:03:26.888Z,51.40
2019-04-20T19:05:49.610Z,51.60
2019-04-20T19:08:19.254Z,51.20
2019-04-20T19:11:00.612Z,52.90
2019-04-20T19:13:42.365Z,51.00
2019-04-20T19:16:38.173Z,51.50
2019-04-20T19:19:23.390Z,51.90
2019-04-20T19:21:40.974Z,53.50
2019-04-20T19:24:14.184Z,52.70
2019-04-20T19:26:47.661Z,53.30
2019-04-20T19:29:20.486Z,53.50
2019-04-20T19:32:03.981Z,53.80
2019-04-20T19:34:29.962Z,54.50
2019-04-20T19:36:57.506Z,55.30
2019-04-20T19:39:30.333Z,54.90
2019-04-20T19:41:52.857Z,53.40
2019-04-20T19:44:27.280Z,53.40
2019-04-20T19:47:11.347Z,53.90
2019-04-20T19:49:30.489Z,56.30
2019-04-20T19:52:20.126Z,58.10
2019-04-20T19:54:42.985Z,57.10
2019-04-20T19:57:05.126Z,57.90
2019-04-20T19:59:31.003Z,61.70
2019-04-20T20:01:51.880Z,61.10
2019-04-20T20:04:21.685Z,62.40
2019-04-20T20:06:57.434Z,60.90
2019-04-20T20:09:21.874Z,61.30
2019-04-20T20:11:51.516Z,64.10
2019-04-20T20:14:31.977Z,66.30
2019-04-20T20:17:12.929Z,68.70
2019-04-20T20:19:38.498Z,73.10
2019-04-20T20:22:06.667Z,77.60
2019-04-20T20:24:25.161Z,89.70
2019-04-20T20:27:00.486Z,94.00
2019-04-20T20:29:35.210Z,97.30
2019-04-20T20:32:13.346Z,97.90
2019-04-20T20:34:34.552Z,99.80
2019-04-20T20:37:03.175Z,99.90
2019-04-20T20:39:31.705Z,99.90
2019-04-20T20:42:10.813Z,99.90
2019-04-20T20:44:41.171Z,99.90
2019-04-20T20:47:29.870Z,99.90
2019-04-20T20:50:01.431Z,99.90
2019-04-20T20:52:21.900Z,99.90
2019-04-20T20:54:45.923Z,99.90
2019-04-20T20:57:11.398Z,99.90
2019-04-20T20:59:46.889Z,99.90
2019-04-20T21:02:13.977Z,99.90
2019-04-20T21:04:37.639Z,99.90
2019-04-20T21:07:06.832Z,99.90
2019-04-20T21:09:37.490Z,99.90
2019-04-20T21:12:10.883Z,99.90
2019-04-20T21:14:40.595Z,99.90
2019-04-20T21:17:15.626Z,99.90
2019-04-20T21:19:58.318Z,99.90
2019-04-20T21:22:16.977Z,99.90
2019-04-20T21:24:45.397Z,99.90
2019-04-20T21:27:16.490Z,99.90
2019-04-20T21:29:50.771Z,99.90
2019-04-20T21:32:17.653Z,99.90
2019-04-20T21:34:51.864Z,99.90
2019-04-20T21:37:19.434Z,99.90
2019-04-20T21:39:53.372Z,99.90
2019-04-20T21:42:21.209Z,99.90
2019-04-20T21:44:50.142Z,99.90
2019-04-20T21:47:25.894Z,99.90
2019-04-20T21:49:57.831Z,99.90
2019-04-20T21:52:27.209Z,99.90
2019-04-20T21:54:52.101Z,99.90
2019-04-20T21:57:22.076Z,99.90
2019-04-20T21:59:54.254Z,99.90
2019-04-20T22:02:29.737Z,99.90
2019-04-20T22:04:53.530Z,99.90
2019-04-20T22:07:22.892Z,99.90
2019-04-20T22:09:53.653Z,99.90
2019-04-20T22:12:23.609Z,99.90
2019-04-20T22:14:58.987Z,99.90
2019-04-20T22:17:28.838Z,99.90
2019-04-20T22:20:07.668Z,99.90
2019-04-20T22:22:45.388Z,99.90
2019-04-20T22:25:08.306Z,99.90
2019-04-20T22:27:31.267Z,99.90
2019-04-20T22:29:57.789Z,99.90
2019-04-20T22:32:28.016Z,99.90
2019-04-20T22:35:03.213Z,99.90
2019-04-20T22:37:36.485Z,99.90
2019-04-20T22:40:06.913Z,99.90
2019-04-20T22:42:40.156Z,99.90
2019-04-20T22:45:11.583Z,99.90
2019-04-20T22:47:39.112Z,99.90
2019-04-20T22:50:39.578Z,99.90
2019-04-20T22:52:49.284Z,99.90
2019-04-20T22:55:36.334Z,99.90
2019-04-20T22:57:53.868Z,99.90
2019-04-20T23:00:28.392Z,99.90
2019-04-20T23:02:47.042Z,99.90
2019-04-20T23:05:16.672Z,99.90
2019-04-20T23:07:46.632Z,99.90
2019-04-20T23:10:18.226Z,99.90
2019-04-20T23:12:51.420Z,99.90
2019-04-20T23:15:18.439Z,99.90
2019-04-20T23:17:50.434Z,99.90
2019-04-20T23:20:25.311Z,99.90
2019-04-20T23:22:51.121Z,99.90
2019-04-20T23:25:20.946Z,99.90
2019-04-20T23:27:51.206Z,99.90
2019-04-20T23:30:26.075Z,99.90
2019-04-20T23:32:51.787Z,99.90
2019-04-20T23:35:24.443Z,99.90
2019-04-20T23:37:55.106Z,99.90
2019-04-20T23:40:23.551Z,99.90
2019-04-20T23:43:03.334Z,99.90
2019-04-20T23:45:54.850Z,99.90
2019-04-20T23:48:38.944Z,99.90
2019-04-20T23:51:29.593Z,99.90
2019-04-20T23:53:48.137Z,99.90
2019-04-20T23:56:07.810Z,99.90
2019-04-20T23:58:42.999Z,99.90
